Time;durP1;ratioP1;P1;durP2;ratioP2;P2;SDS_P1;SDS_P2;PMS_P1;PMS_P2;Temp;Humidity;BMP_temperature;BMP_pressure;BME280_temperature;BME280_humidity;BME280_pressure;Samples;Min_cycle;Max_cycle;Signal;HPM_P1;HPM_P2
2021/04/17 00:01:13;;;;;;;20.95;15.95;;;4.40;99.90;;;;;;5068089;28;20671;-68
2021/04/17 00:03:51;;;;;;;21.67;16.08;;;4.40;99.90;;;;;;5075187;28;20312;-68
2021/04/17 00:06:31;;;;;;;20.83;15.95;;;4.40;99.90;;;;;;5080553;28;20292;-68
2021/04/17 00:09:15;;;;;;;22.50;16.42;;;4.30;99.90;;;;;;5071790;28;20308;-68
2021/04/17 00:11:59;;;;;;;23.85;16.90;;;4.30;99.90;;;;;;5088696;28;20402;-67
2021/04/17 00:14:40;;;;;;;20.45;16.25;;;4.30;99.90;;;;;;5072645;28;20319;-68
2021/04/17 00:17:25;;;;;;;21.38;15.85;;;4.30;99.90;;;;;;5074488;28;20332;-68
2021/04/17 00:20:06;;;;;;;20.77;15.57;;;4.30;99.90;;;;;;5110369;27;20697;-68
2021/04/17 00:22:48;;;;;;;23.30;16.23;;;4.30;99.90;;;;;;5087126;28;20311;-68
2021/04/17 00:25:27;;;;;;;24.23;15.93;;;4.20;99.90;;;;;;5073300;28;20803;-68
2021/04/17 00:28:08;;;;;;;22.17;16.55;;;4.20;99.90;;;;;;5110873;27;20660;-68
2021/04/17 00:30:47;;;;;;;22.73;16.90;;;4.30;99.90;;;;;;5070543;28;20881;-68
2021/04/17 00:33:27;;;;;;;24.08;15.63;;;4.20;99.90;;;;;;5048857;28;20313;-68
2021/04/17 00:36:07;;;;;;;20.27;15.13;;;4.20;99.90;;;;;;5128295;27;20822;-68
2021/04/17 00:38:46;;;;;;;22.50;16.00;;;4.10;99.90;;;;;;5129198;27;20286;-68
2021/04/17 00:41:26;;;;;;;20.60;15.02;;;4.20;99.90;;;;;;5076508;28;20669;-68
2021/04/17 00:44:06;;;;;;;19.05;15.10;;;4.10;99.90;;;;;;5083213;28;20305;-68
2021/04/17 00:46:46;;;;;;;21.33;15.02;;;4.10;99.90;;;;;;5074220;27;20875;-68
2021/04/17 00:49:26;;;;;;;18.30;13.75;;;4.10;99.90;;;;;;5087523;28;20852;-67
2021/04/17 00:52:06;;;;;;;23.05;16.15;;;4.10;99.90;;;;;;5086779;28;20299;-68
2021/04/17 00:54:45;;;;;;;18.20;14.15;;;4.00;99.90;;;;;;5086268;28;20301;-69
2021/04/17 00:57:26;;;;;;;17.65;13.65;;;4.00;99.90;;;;;;5087842;28;20733;-68
2021/04/17 01:00:07;;;;;;;19.92;14.88;;;4.00;99.90;;;;;;5088443;28;20311;-68
2021/04/17 01:03:17;;;;;;;20.70;15.20;;;3.90;99.90;;;;;;5088493;28;20297;-68
2021/04/17 01:06:02;;;;;;;18.48;14.43;;;3.80;99.90;;;;;;5107818;27;20339;-68
2021/04/17 01:08:50;;;;;;;19.45;14.18;;;3.70;99.90;;;;;;5087933;28;20311;-67
2021/04/17 01:11:47;;;;;;;20.00;15.18;;;3.70;99.90;;;;;;5087059;28;20307;-68
2021/04/17 01:14:29;;;;;;;18.20;14.32;;;3.60;99.90;;;;;;5110005;27;20101;-68
2021/04/17 01:17:10;;;;;;;21.15;14.88;;;3.50;99.90;;;;;;5128431;27;20399;-68
2021/04/17 01:20:18;;;;;;;18.60;14.85;;;3.40;99.90;;;;;;5097187;27;20329;-69
2021/04/17 01:23:37;;;;;;;19.08;14.35;;;3.40;99.90;;;;;;5085380;28;20304;-67
2021/04/17 01:26:19;;;;;;;18.55;15.10;;;3.40;99.90;;;;;;5088399;27;20300;-67
2021/04/17 01:29:13;;;;;;;20.60;14.70;;;3.30;99.90;;;;;;5108988;27;20123;-68
2021/04/17 01:31:53;;;;;;;19.75;14.68;;;3.30;99.90;;;;;;5121822;27;20823;-69
2021/04/17 01:34:32;;;;;;;23.58;15.02;;;3.30;99.90;;;;;;5085372;27;20368;-68
2021/04/17 01:37:11;;;;;;;21.05;15.27;;;3.30;99.90;;;;;;5121391;27;20306;-68
2021/04/17 01:39:50;;;;;;;20.17;15.15;;;3.30;99.90;;;;;;5087409;28;20663;-68
2021/04/17 01:42:31;;;;;;;20.52;14.90;;;3.30;99.90;;;;;;5086410;27;20382;-68
2021/04/17 01:45:15;;;;;;;21.35;15.23;;;3.30;99.90;;;;;;5088817;28;20307;-68
2021/04/17 01:47:58;;;;;;;19.52;14.65;;;3.30;99.90;;;;;;5105553;27;20345;-68
2021/04/17 01:50:40;;;;;;;20.98;14.48;;;3.40;99.90;;;;;;5086717;27;20364;-67
2021/04/17 01:53:23;;;;;;;18.85;14.52;;;3.30;99.90;;;;;;5108942;27;20823;-68
2021/04/17 01:56:04;;;;;;;18.63;14.60;;;3.30;99.90;;;;;;5108787;27;20295;-67
2021/04/17 01:58:44;;;;;;;18.48;13.90;;;3.30;99.90;;;;;;5114034;27;20665;-68
2021/04/17 02:01:23;;;;;;;20.55;14.80;;;3.30;99.90;;;;;;5083731;28;20336;-68
2021/04/17 02:04:03;;;;;;;20.33;14.52;;;3.40;99.90;;;;;;5114418;27;20311;-68
2021/04/17 02:06:43;;;;;;;16.58;13.65;;;3.40;99.90;;;;;;5087475;28;20466;-67
2021/04/17 02:09:22;;;;;;;20.13;14.55;;;3.40;99.90;;;;;;5088446;28;20308;-69
2021/04/17 02:12:03;;;;;;;19.88;14.63;;;3.40;99.90;;;;;;5082135;28;20659;-68
2021/04/17 02:14:42;;;;;;;20.98;14.50;;;3.40;99.90;;;;;;5076141;28;20305;-68
2021/04/17 02:17:41;;;;;;;17.30;13.55;;;3.30;99.90;;;;;;5091191;27;20362;-69
2021/04/17 02:20:31;;;;;;;22.40;15.00;;;3.30;99.90;;;;;;5110609;27;20721;-69
2021/04/17 02:23:11;;;;;;;18.88;14.07;;;3.30;99.90;;;;;;5086721;28;20307;-67
2021/04/17 02:25:50;;;;;;;18.55;13.98;;;3.30;99.90;;;;;;5079780;28;20306;-68
2021/04/17 02:28:30;;;;;;;20.48;14.70;;;3.20;99.90;;;;;;5129362;27;20427;-67
2021/04/17 02:31:09;;;;;;;23.42;14.77;;;3.20;99.90;;;;;;5088663;27;20365;-69
2021/04/17 02:33:47;;;;;;;20.52;14.35;;;3.10;99.90;;;;;;5084268;27;20353;-69
2021/04/17 02:36:25;;;;;;;23.17;15.00;;;3.10;99.90;;;;;;5127443;27;20391;-68
2021/04/17 02:39:04;;;;;;;20.58;15.55;;;3.10;99.90;;;;;;5122176;27;20926;-68
2021/04/17 02:41:45;;;;;;;22.38;14.88;;;3.00;99.90;;;;;;5072989;27;20866;-67
2021/04/17 02:44:23;;;;;;;22.90;15.45;;;3.00;99.90;;;;;;5106863;27;20471;-68
2021/04/17 02:46:50;;;;;;;19.83;15.25;;;3.00;99.90;;;;;;5083757;28;20044;-68
2021/04/17 02:49:28;;;;;;;22.13;16.23;;;3.00;99.90;;;;;;5106875;27;20391;-67
2021/04/17 02:52:07;;;;;;;23.52;15.18;;;3.00;99.90;;;;;;5087920;27;20933;-68
2021/04/17 02:54:45;;;;;;;22.98;16.08;;;3.00;99.90;;;;;;5086116;27;20409;-68
2021/04/17 02:57:24;;;;;;;21.67;16.00;;;3.00;99.90;;;;;;5082300;28;20348;-68
2021/04/17 03:00:08;;;;;;;20.65;13.93;;;3.00;99.90;;;;;;5079401;28;20334;-68
2021/04/17 03:02:49;;;;;;;23.08;15.52;;;3.00;99.90;;;;;;5107613;27;20291;-68
2021/04/17 03:05:30;;;;;;;23.25;15.73;;;3.00;99.90;;;;;;5088399;28;20300;-68
2021/04/17 03:08:13;;;;;;;19.63;15.13;;;3.00;99.90;;;;;;5106990;27;20716;-69
2021/04/17 03:10:52;;;;;;;19.88;14.90;;;3.00;99.90;;;;;;5087072;28;20822;-68
2021/04/17 03:13:32;;;;;;;21.15;15.60;;;3.00;99.90;;;;;;5087581;28;20292;-69
2021/04/17 03:16:12;;;;;;;20.67;15.55;;;3.10;99.90;;;;;;5071743;28;20347;-68
2021/04/17 03:18:52;;;;;;;20.50;15.25;;;3.10;99.90;;;;;;5078638;28;20873;-67
2021/04/17 03:21:31;;;;;;;22.77;16.40;;;3.10;99.90;;;;;;5084185;28;20303;-68
2021/04/17 03:24:11;;;;;;;20.58;15.70;;;3.00;99.90;;;;;;5110746;27;20880;-68
2021/04/17 03:26:51;;;;;;;24.15;16.52;;;3.00;99.90;;;;;;5081847;27;20373;-67
2021/04/17 03:29:29;;;;;;;21.83;15.75;;;3.00;99.90;;;;;;5088695;28;20315;-68
2021/04/17 03:32:09;;;;;;;20.98;16.02;;;3.00;99.90;;;;;;5084744;27;20795;-68
2021/04/17 03:34:49;;;;;;;29.00;17.77;;;3.00;99.90;;;;;;5074358;28;20304;-68
2021/04/17 03:37:31;;;;;;;22.92;16.10;;;3.00;99.90;;;;;;5076681;27;20459;-68
2021/04/17 03:40:10;;;;;;;22.30;15.90;;;3.00;99.90;;;;;;5059314;28;20331;-68
2021/04/17 03:42:50;;;;;;;21.20;15.65;;;3.00;99.90;;;;;;5086672;28;20293;-68
2021/04/17 03:45:31;;;;;;;20.63;16.25;;;2.90;99.90;;;;;;5084331;28;20311;-68
2021/04/17 03:48:12;;;;;;;20.20;15.30;;;3.00;99.90;;;;;;5116311;27;20676;-68
2021/04/17 03:50:51;;;;;;;21.20;15.90;;;3.00;99.90;;;;;;5110339;27;20307;-68
2021/04/17 03:53:31;;;;;;;20.77;15.80;;;3.10;99.90;;;;;;5112898;27;20318;-68
2021/04/17 03:56:10;;;;;;;20.77;14.82;;;3.20;99.90;;;;;;5116322;27;20819;-68
2021/04/17 03:58:50;;;;;;;21.65;16.42;;;3.20;99.90;;;;;;5109306;27;20303;-68
2021/04/17 04:01:30;;;;;;;19.67;15.48;;;3.20;99.90;;;;;;5116684;27;20319;-68
2021/04/17 04:04:10;;;;;;;19.73;15.43;;;3.20;99.90;;;;;;5087234;28;20303;-68
2021/04/17 04:06:50;;;;;;;22.95;16.60;;;3.30;99.90;;;;;;5076013;28;20305;-68
2021/04/17 04:09:31;;;;;;;22.48;16.42;;;3.30;99.90;;;;;;5088881;27;20128;-68
2021/04/17 04:12:10;;;;;;;23.52;15.93;;;3.30;99.90;;;;;;5087256;28;20307;-67
2021/04/17 04:14:49;;;;;;;22.52;16.38;;;3.30;99.90;;;;;;5107179;27;20717;-68
2021/04/17 04:17:27;;;;;;;23.10;16.60;;;3.40;99.90;;;;;;5109882;27;20330;-67
2021/04/17 04:19:54;;;;;;;20.27;15.35;;;3.40;99.90;;;;;;5096369;28;20062;-67
2021/04/17 04:22:36;;;;;;;20.48;15.07;;;3.40;99.90;;;;;;5073394;27;20349;-68
2021/04/17 04:25:16;;;;;;;21.13;16.23;;;3.40;99.90;;;;;;5103936;27;20335;-68
2021/04/17 04:27:56;;;;;;;21.33;15.05;;;3.40;99.90;;;;;;5109235;27;20661;-67
2021/04/17 04:30:35;;;;;;;22.30;15.60;;;3.40;99.90;;;;;;5121147;27;20328;-68
2021/04/17 04:33:15;;;;;;;23.52;16.10;;;3.40;99.90;;;;;;5086393;28;20307;-68
2021/04/17 04:35:55;;;;;;;20.60;15.52;;;3.50;99.90;;;;;;5108954;27;20302;-67
2021/04/17 04:38:35;;;;;;;21.05;15.70;;;3.40;99.90;;;;;;5088490;28;20314;-68
2021/04/17 04:41:15;;;;;;;21.75;16.05;;;3.40;99.90;;;;;;5099321;27;20686;-67
2021/04/17 04:43:54;;;;;;;20.42;15.73;;;3.30;99.90;;;;;;5087508;28;20311;-68
2021/04/17 04:46:35;;;;;;;20.90;16.45;;;3.30;99.90;;;;;;5116867;27;20299;-68
2021/04/17 04:49:14;;;;;;;20.45;14.65;;;3.30;99.90;;;;;;5065692;28;20340;-68
2021/04/17 04:51:54;;;;;;;25.17;15.68;;;3.40;99.90;;;;;;5047129;28;20313;-67
2021/04/17 04:54:34;;;;;;;21.55;14.93;;;3.40;99.90;;;;;;5117067;27;20335;-68
2021/04/17 04:57:14;;;;;;;20.75;15.30;;;3.40;99.90;;;;;;5087175;28;20319;-68
2021/04/17 04:59:53;;;;;;;22.90;15.68;;;3.40;99.90;;;;;;5113727;27;20306;-68
2021/04/17 05:02:46;;;;;;;20.48;15.57;;;3.50;99.90;;;;;;5086633;28;20826;-68
2021/04/17 05:05:26;;;;;;;22.13;16.17;;;3.50;99.90;;;;;;5087632;27;20353;-68
2021/04/17 05:08:06;;;;;;;20.45;14.43;;;3.50;99.90;;;;;;5111029;27;20689;-68
2021/04/17 05:10:46;;;;;;;21.23;15.52;;;3.50;99.90;;;;;;5087148;28;20311;-67
2021/04/17 05:13:27;;;;;;;18.92;14.95;;;3.60;99.90;;;;;;5087644;28;20846;-67
2021/04/17 05:16:06;;;;;;;20.20;15.10;;;3.60;99.90;;;;;;5111731;27;20318;-68
2021/04/17 05:18:45;;;;;;;22.83;15.55;;;3.70;99.90;;;;;;5073228;28;20347;-68
2021/04/17 05:21:25;;;;;;;19.23;14.90;;;3.70;99.90;;;;;;5066991;28;20893;-68
2021/04/17 05:24:11;;;;;;;18.73;14.57;;;3.70;99.90;;;;;;5083920;28;20300;-68
2021/04/17 05:26:51;;;;;;;19.48;14.30;;;3.80;99.90;;;;;;5078535;28;20342;-68
2021/04/17 05:29:29;;;;;;;22.25;15.48;;;3.90;99.90;;;;;;5088386;27;20352;-67
2021/04/17 05:32:08;;;;;;;18.52;14.43;;;3.90;99.90;;;;;;5086837;28;20319;-68
2021/04/17 05:34:47;;;;;;;19.40;15.13;;;3.90;99.90;;;;;;5075925;28;20302;-68
2021/04/17 05:37:27;;;;;;;19.83;15.38;;;3.90;99.90;;;;;;5077160;28;20837;-67
2021/04/17 05:40:08;;;;;;;23.63;15.68;;;4.00;99.90;;;;;;5113381;27;20654;-68
2021/04/17 05:42:47;;;;;;;21.17;15.20;;;4.00;99.90;;;;;;5113592;27;20327;-68
2021/04/17 05:45:28;;;;;;;19.20;14.65;;;4.00;99.90;;;;;;5087154;28;20304;-68
2021/04/17 05:48:08;;;;;;;17.92;13.70;;;4.00;99.90;;;;;;5071200;27;20373;-68
2021/04/17 05:50:48;;;;;;;17.83;14.10;;;4.20;99.90;;;;;;5071722;28;20359;-69
2021/04/17 05:53:27;;;;;;;23.45;15.05;;;4.30;99.90;;;;;;5114497;27;20388;-68
2021/04/17 05:56:08;;;;;;;19.48;15.48;;;4.40;99.90;;;;;;5105768;27;20120;-68
2021/04/17 05:58:47;;;;;;;20.70;14.30;;;4.60;99.90;;;;;;5087040;28;20311;-69
2021/04/17 06:01:25;;;;;;;17.92;14.23;;;4.70;99.90;;;;;;5077212;28;20334;-68
2021/04/17 06:04:07;;;;;;;17.80;13.73;;;4.60;99.90;;;;;;5071640;28;20312;-68
2021/04/17 06:06:47;;;;;;;20.85;14.88;;;4.80;99.90;;;;;;5088081;28;21033;-69
2021/04/17 06:09:26;;;;;;;20.92;14.63;;;4.80;99.90;;;;;;5079882;28;20343;-68
2021/04/17 06:12:06;;;;;;;18.92;14.32;;;4.90;99.90;;;;;;5069910;28;20304;-68
2021/04/17 06:14:47;;;;;;;21.60;14.90;;;5.00;99.90;;;;;;5080916;27;20348;-67
2021/04/17 06:17:26;;;;;;;18.23;14.60;;;5.10;99.90;;;;;;5101005;27;20306;-68
2021/04/17 06:20:06;;;;;;;19.05;15.20;;;5.10;99.90;;;;;;5109966;27;20353;-68
2021/04/17 06:22:47;;;;;;;22.17;14.88;;;5.30;99.90;;;;;;5063547;28;20301;-68
2021/04/17 06:25:27;;;;;;;23.65;17.63;;;5.20;99.90;;;;;;5073489;28;20845;-69
2021/04/17 06:28:06;;;;;;;20.17;15.40;;;5.30;99.90;;;;;;5111664;27;20294;-68
2021/04/17 06:30:45;;;;;;;19.85;15.07;;;5.30;99.90;;;;;;5079461;28;20308;-68
2021/04/17 06:33:24;;;;;;;20.65;14.43;;;5.50;99.90;;;;;;5058263;27;20365;-68
2021/04/17 06:36:06;;;;;;;22.67;13.90;;;5.50;99.90;;;;;;5106956;27;20355;-68
2021/04/17 06:43:03;;;;;;;19.77;14.50;;;5.80;99.90;;;;;;5087584;28;20398;-68
2021/04/17 06:45:42;;;;;;;18.38;13.95;;;6.00;99.90;;;;;;5068265;27;20345;-67
2021/04/17 06:48:23;;;;;;;23.83;14.20;;;6.20;99.90;;;;;;5082232;27;20443;-68
2021/04/17 06:50:51;;;;;;;22.58;14.32;;;6.20;99.90;;;;;;5060866;28;20041;-69
2021/04/17 06:53:33;;;;;;;18.58;14.23;;;6.10;99.90;;;;;;5082955;27;20723;-68
2021/04/17 06:56:00;;;;;;;15.27;13.57;;;6.00;99.90;;;;;;5083836;28;20079;-68
2021/04/17 06:58:42;;;;;;;17.23;13.30;;;6.20;99.90;;;;;;5087071;28;20409;-68
2021/04/17 07:01:22;;;;;;;18.38;14.07;;;6.30;99.90;;;;;;5087782;27;20414;-68
2021/04/17 07:04:02;;;;;;;17.45;13.15;;;6.50;99.90;;;;;;5087150;27;20360;-68
2021/04/17 07:10:16;;;;;;;17.75;11.85;;;7.10;99.90;;;;;;5087750;27;20409;-68
2021/04/17 07:13:11;;;;;;;14.38;11.80;;;7.50;99.90;;;;;;5067891;27;21150;-67
2021/04/17 07:15:49;;;;;;;14.80;10.90;;;7.60;99.90;;;;;;5098390;27;20420;-68
2021/04/17 07:18:31;;;;;;;12.27;11.00;;;7.90;99.90;;;;;;5085231;27;20409;-68
2021/04/17 07:21:13;;;;;;;13.27;10.82;;;7.90;99.90;;;;;;5088056;27;20340;-68
2021/04/17 07:23:53;;;;;;;12.07;10.88;;;8.10;99.90;;;;;;5055302;27;20357;-68
2021/04/17 07:26:31;;;;;;;12.65;11.05;;;8.20;99.90;;;;;;5073629;27;20765;-67
2021/04/17 07:29:13;;;;;;;15.57;10.65;;;8.40;99.90;;;;;;5088877;27;20345;-68
2021/04/17 07:31:55;;;;;;;12.95;9.75;;;8.60;99.90;;;;;;5085046;27;20356;-67
2021/04/17 07:34:34;;;;;;;12.55;9.77;;;8.60;99.90;;;;;;5084522;27;20422;-68
2021/04/17 07:37:15;;;;;;;12.00;9.57;;;8.40;99.90;;;;;;5102030;27;20379;-67
2021/04/17 07:39:54;;;;;;;10.70;9.60;;;8.50;99.90;;;;;;5077009;27;20361;-68
2021/04/17 07:42:55;;;;;;;11.18;9.57;;;8.60;99.90;;;;;;5067045;27;20758;-68
2021/04/17 07:45:29;;;;;;;10.43;9.32;;;8.50;99.90;;;;;;5065508;28;20052;-67
2021/04/17 07:48:28;;;;;;;12.40;9.80;;;8.30;99.90;;;;;;5074455;27;20358;-68
2021/04/17 07:51:09;;;;;;;12.07;8.55;;;8.40;99.90;;;;;;5087964;27;20406;-68
2021/04/17 07:53:50;;;;;;;11.00;9.50;;;8.50;99.90;;;;;;5084106;27;20765;-69
2021/04/17 07:56:36;;;;;;;10.23;9.23;;;8.60;99.90;;;;;;5119287;27;20347;-67
2021/04/17 07:59:20;;;;;;;11.50;9.98;;;8.70;99.90;;;;;;5084430;27;20759;-68
2021/04/17 08:01:59;;;;;;;10.30;9.30;;;8.90;99.90;;;;;;5087622;27;20348;-68
2021/04/17 08:04:30;;;;;;;10.82;9.18;;;8.90;99.90;;;;;;5074973;28;20052;-68
2021/04/17 08:06:59;;;;;;;10.88;9.00;;;9.10;99.90;;;;;;5080731;28;20552;-68
2021/04/17 08:09:30;;;;;;;10.85;9.60;;;9.30;99.90;;;;;;5088262;28;20060;-68
2021/04/17 08:12:00;;;;;;;11.73;9.40;;;9.50;99.90;;;;;;5074217;28;20052;-68
2021/04/17 08:14:47;;;;;;;12.65;9.50;;;9.50;99.90;;;;;;5076936;28;20125;-68
2021/04/17 08:17:19;;;;;;;10.30;9.25;;;9.50;99.90;;;;;;5073009;28;20068;-68
2021/04/17 08:19:47;;;;;;;10.93;9.60;;;9.60;99.90;;;;;;5086110;28;20085;-68
2021/04/17 08:22:15;;;;;;;11.02;9.27;;;9.80;99.90;;;;;;5075751;28;20045;-68
2021/04/17 08:24:46;;;;;;;10.55;9.43;;;9.90;99.90;;;;;;5074241;28;20135;-68
2021/04/17 08:27:14;;;;;;;15.63;11.02;;;10.10;99.90;;;;;;5067057;28;20570;-68
2021/04/17 08:29:46;;;;;;;9.88;8.98;;;10.30;99.90;;;;;;5066075;28;20076;-68
2021/04/17 08:32:24;;;;;;;10.38;9.30;;;10.40;99.90;;;;;;5057941;28;20122;-67
2021/04/17 08:35:19;;;;;;;10.43;9.43;;;10.30;99.90;;;;;;5064318;28;20407;-67
2021/04/17 08:37:55;;;;;;;10.48;9.35;;;10.20;99.90;;;;;;5059611;28;20041;-67
2021/04/17 08:40:37;;;;;;;11.35;9.57;;;10.30;99.90;;;;;;5064728;28;20063;-67
2021/04/17 08:43:25;;;;;;;11.10;9.07;;;10.50;99.90;;;;;;5067113;28;20499;-67
2021/04/17 08:46:10;;;;;;;10.25;9.25;;;10.70;99.90;;;;;;5066009;28;20102;-68
2021/04/17 08:48:40;;;;;;;9.32;8.52;;;10.80;99.90;;;;;;5065521;28;20495;-69
2021/04/17 08:51:31;;;;;;;9.93;8.93;;;11.20;99.90;;;;;;5067005;28;20392;-68
2021/04/17 08:54:00;;;;;;;10.15;8.57;;;11.20;99.90;;;;;;5095241;28;20151;-68
2021/04/17 08:56:48;;;;;;;9.50;8.70;;;11.60;99.90;;;;;;5064518;28;20465;-68
2021/04/17 08:59:30;;;;;;;10.90;8.88;;;11.90;99.90;;;;;;5066397;28;20052;-68
2021/04/17 09:02:00;;;;;;;9.90;9.00;;;12.10;99.90;;;;;;5065910;28;20049;-68
2021/04/17 09:04:28;;;;;;;10.00;9.00;;;12.10;99.90;;;;;;5066159;28;20283;-68
2021/04/17 09:06:57;;;;;;;11.52;8.70;;;12.00;99.90;;;;;;5065476;28;20052;-68
2021/04/17 09:09:26;;;;;;;11.20;10.15;;;11.90;99.90;;;;;;5065769;28;20075;-68
2021/04/17 09:12:02;;;;;;;9.57;8.65;;;11.80;99.90;;;;;;5060104;28;20478;-68
2021/04/17 09:14:31;;;;;;;9.80;8.88;;;11.60;99.90;;;;;;5052325;28;20511;-68
2021/04/17 09:17:03;;;;;;;10.68;9.68;;;11.50;99.90;;;;;;5052112;28;20403;-68
2021/04/17 09:19:53;;;;;;;9.48;8.65;;;11.30;99.90;;;;;;5049104;28;20053;-67
2021/04/17 09:22:26;;;;;;;10.95;9.30;;;11.30;99.90;;;;;;5039030;28;20076;-67
2021/04/17 09:24:56;;;;;;;12.27;9.30;;;11.10;99.90;;;;;;5051016;28;20049;-68
2021/04/17 09:27:23;;;;;;;10.00;9.00;;;10.90;99.90;;;;;;5051168;28;20053;-68
2021/04/17 09:30:22;;;;;;;10.13;9.13;;;10.90;99.90;;;;;;5051938;28;20450;-67
2021/04/17 09:32:57;;;;;;;10.05;9.13;;;10.80;99.90;;;;;;5050244;28;20166;-67
2021/04/17 09:35:34;;;;;;;11.80;9.63;;;10.90;99.90;;;;;;5051139;28;20573;-67
2021/04/17 09:38:07;;;;;;;10.00;8.98;;;11.00;99.90;;;;;;5052306;28;20057;-68
2021/04/17 09:40:47;;;;;;;10.15;9.25;;;11.00;99.90;;;;;;5050640;28;20114;-68
2021/04/17 09:43:33;;;;;;;11.13;10.00;;;10.80;99.90;;;;;;5053483;28;20446;-68
2021/04/17 09:46:06;;;;;;;9.60;8.80;;;10.80;99.90;;;;;;5053289;28;20119;-68
2021/04/17 09:48:40;;;;;;;11.35;9.65;;;10.80;99.90;;;;;;5051673;28;20037;-67
2021/04/17 09:51:28;;;;;;;10.88;9.77;;;10.90;99.90;;;;;;5062992;28;20050;-68
2021/04/17 09:54:02;;;;;;;13.57;9.60;;;10.70;99.90;;;;;;5079051;28;20122;-67
2021/04/17 09:56:38;;;;;;;11.27;9.63;;;10.80;99.90;;;;;;5050178;28;20076;-67
2021/04/17 09:59:12;;;;;;;12.35;9.55;;;10.90;99.90;;;;;;5051795;28;20081;-68
2021/04/17 10:01:58;;;;;;;10.52;9.52;;;10.80;99.90;;;;;;5049845;28;20049;-68
2021/04/17 10:04:50;;;;;;;9.77;8.77;;;10.60;99.90;;;;;;5035301;28;20047;-68
2021/04/17 10:07:18;;;;;;;9.60;8.70;;;10.60;99.90;;;;;;5047116;28;20056;-68
2021/04/17 10:10:18;;;;;;;9.35;8.48;;;10.40;99.90;;;;;;5050828;28;20041;-68
2021/04/17 10:12:53;;;;;;;9.95;9.05;;;10.10;99.90;;;;;;5033905;28;20044;-68
2021/04/17 10:15:34;;;;;;;9.07;8.27;;;10.10;99.90;;;;;;5044384;28;20049;-68
2021/04/17 10:18:04;;;;;;;11.55;9.35;;;9.90;99.90;;;;;;5051510;28;20521;-67
2021/04/17 10:20:32;;;;;;;10.05;9.13;;;9.50;99.90;;;;;;5050489;28;20057;-68
2021/04/17 10:23:01;;;;;;;9.38;8.48;;;9.20;99.90;;;;;;5050796;28;20495;-68
2021/04/17 10:25:41;;;;;;;9.10;8.27;;;8.90;99.90;;;;;;5050365;28;20434;-68
2021/04/17 10:28:20;;;;;;;9.10;8.20;;;9.00;99.90;;;;;;5048825;28;20444;-68
2021/04/17 10:30:50;;;;;;;9.55;8.63;;;8.80;99.90;;;;;;5053226;28;20110;-69
2021/04/17 10:33:25;;;;;;;8.75;7.82;;;8.80;99.90;;;;;;5048468;28;20563;-68
2021/04/17 10:35:55;;;;;;;9.07;8.13;;;8.70;99.90;;;;;;5038668;28;20106;-68
2021/04/17 10:38:31;;;;;;;9.48;8.70;;;8.70;99.90;;;;;;5052199;28;20049;-69
2021/04/17 10:41:01;;;;;;;8.38;7.68;;;9.00;99.90;;;;;;5053431;28;20052;-69
2021/04/17 10:43:28;;;;;;;9.13;8.23;;;9.30;99.90;;;;;;5052219;28;20098;-69
2021/04/17 10:46:00;;;;;;;10.32;7.70;;;9.50;99.90;;;;;;5064820;28;20044;-68
2021/04/17 10:48:39;;;;;;;9.07;8.23;;;10.00;99.90;;;;;;5045450;28;20136;-68
2021/04/17 10:51:09;;;;;;;9.07;8.27;;;10.50;99.90;;;;;;5045598;28;20095;-68
2021/04/17 10:53:41;;;;;;;9.10;8.35;;;10.80;99.90;;;;;;5045465;28;20483;-68
2021/04/17 10:56:14;;;;;;;9.85;8.95;;;11.00;99.90;;;;;;5048520;28;20049;-68
2021/04/17 10:58:42;;;;;;;9.55;8.65;;;11.00;99.90;;;;;;5054048;28;20084;-68
2021/04/17 11:01:14;;;;;;;9.05;8.25;;;11.30;99.90;;;;;;5052700;28;20099;-68
2021/04/17 11:03:45;;;;;;;;;;;11.50;99.90;;;;;;5050549;28;20091;-68
2021/04/17 11:06:12;;;;;;;9.18;8.27;;;11.40;99.90;;;;;;5051571;28;19924;-68
2021/04/17 11:08:40;;;;;;;8.98;8.27;;;11.30;99.90;;;;;;5052587;28;20392;-69
2021/04/17 11:11:13;;;;;;;9.05;8.15;;;11.30;99.90;;;;;;5053343;28;20080;-68
2021/04/17 11:13:41;;;;;;;8.98;8.18;;;11.40;99.90;;;;;;5053034;28;20053;-68
2021/04/17 11:16:13;;;;;;;8.90;8.10;;;11.20;99.90;;;;;;5052282;28;20742;-68
2021/04/17 11:18:43;;;;;;;9.15;8.35;;;10.90;99.90;;;;;;5053725;28;20150;-68
2021/04/17 11:21:10;;;;;;;9.30;8.40;;;10.50;99.90;;;;;;5052423;28;20051;-68
2021/04/17 11:23:48;;;;;;;10.75;9.80;;;10.30;99.90;;;;;;5051416;28;20098;-68
2021/04/17 11:26:24;;;;;;;9.20;8.40;;;10.00;99.90;;;;;;5051541;28;20049;-68
2021/04/17 11:28:53;;;;;;;9.15;8.15;;;9.80;99.90;;;;;;5052046;28;20123;-68
2021/04/17 11:31:29;;;;;;;9.05;8.18;;;9.40;99.90;;;;;;5035580;28;20049;-68
2021/04/17 11:33:59;;;;;;;8.57;7.68;;;9.10;99.90;;;;;;5049990;28;20063;-68
2021/04/17 11:36:28;;;;;;;8.73;7.93;;;8.90;99.90;;;;;;5051647;28;20049;-69
2021/04/17 11:38:56;;;;;;;8.50;7.68;;;8.80;99.90;;;;;;5050067;28;20045;-69
2021/04/17 11:41:24;;;;;;;8.30;7.53;;;8.90;99.90;;;;;;5050760;28;20049;-70
2021/04/17 11:43:52;;;;;;;8.13;7.43;;;9.00;99.90;;;;;;5052367;28;20863;-68
2021/04/17 11:46:19;;;;;;;8.63;7.90;;;9.00;99.90;;;;;;5063164;28;20508;-70
2021/04/17 11:48:50;;;;;;;8.52;7.82;;;9.10;99.90;;;;;;5052696;28;20053;-69
2021/04/17 11:51:18;;;;;;;9.18;8.38;;;9.30;99.90;;;;;;5053478;28;20122;-69
2021/04/17 11:53:45;;;;;;;8.07;7.47;;;9.30;99.90;;;;;;5054473;28;20057;-69
2021/04/17 11:56:13;;;;;;;8.38;7.68;;;9.40;99.90;;;;;;5041634;28;20055;-69
2021/04/17 11:58:41;;;;;;;9.02;8.23;;;9.40;99.90;;;;;;5055486;28;20056;-68
2021/04/17 12:01:09;;;;;;;8.25;7.65;;;9.50;99.90;;;;;;5056792;28;20048;-69
2021/04/17 12:03:37;;;;;;;9.35;8.40;;;9.50;99.90;;;;;;5041265;28;20566;-69
2021/04/17 12:06:07;;;;;;;8.60;7.95;;;9.50;99.90;;;;;;5049011;28;20052;-69
2021/04/17 12:08:34;;;;;;;9.18;8.43;;;9.60;99.90;;;;;;5040238;28;20038;-69
2021/04/17 12:11:02;;;;;;;9.00;8.30;;;9.60;99.90;;;;;;5047252;28;20373;-69
2021/04/17 12:13:29;;;;;;;9.20;8.40;;;9.80;99.90;;;;;;5051446;28;20047;-69
2021/04/17 12:15:57;;;;;;;9.80;8.25;;;10.00;99.90;;;;;;5050163;28;20049;-69
2021/04/17 12:18:25;;;;;;;9.32;8.50;;;10.40;99.90;;;;;;5049347;28;20605;-68
2021/04/17 12:20:52;;;;;;;9.07;8.20;;;10.80;99.90;;;;;;5054199;28;20061;-68
2021/04/17 12:23:19;;;;;;;8.60;7.80;;;11.40;99.90;;;;;;5052104;28;20041;-69
2021/04/17 12:25:47;;;;;;;9.20;8.50;;;12.20;99.90;;;;;;5051336;28;20052;-69
2021/04/17 12:28:15;;;;;;;8.60;7.80;;;12.80;99.90;;;;;;5037760;28;20053;-69
2021/04/17 12:30:42;;;;;;;8.38;7.68;;;13.30;99.90;;;;;;5051152;28;20130;-69
2021/04/17 12:33:10;;;;;;;9.45;8.10;;;13.80;99.90;;;;;;5045769;28;20566;-68
2021/04/17 12:35:39;;;;;;;8.82;8.00;;;14.20;99.90;;;;;;5050392;28;20143;-69
2021/04/17 12:38:06;;;;;;;9.15;8.35;;;14.30;99.90;;;;;;5049013;28;20495;-68
2021/04/17 12:40:37;;;;;;;9.20;8.40;;;14.40;99.90;;;;;;5050333;28;20403;-68
2021/04/17 12:43:07;;;;;;;8.77;7.90;;;14.60;99.90;;;;;;5048922;28;20055;-69
2021/04/17 12:45:36;;;;;;;8.90;8.07;;;14.50;99.90;;;;;;5060325;28;20049;-69
2021/04/17 12:48:03;;;;;;;8.95;8.25;;;14.00;99.90;;;;;;5052445;28;20061;-69
2021/04/17 12:50:31;;;;;;;9.25;8.45;;;13.80;99.90;;;;;;5052413;28;20052;-69
2021/04/17 12:52:59;;;;;;;10.25;9.25;;;14.00;99.90;;;;;;5054607;28;20061;-69
2021/04/17 12:55:26;;;;;;;10.15;9.15;;;14.00;99.90;;;;;;5053131;28;20100;-69
2021/04/17 12:57:53;;;;;;;10.20;9.30;;;13.60;99.90;;;;;;5053472;28;20077;-69
2021/04/17 13:00:22;;;;;;;10.15;9.15;;;13.30;99.90;;;;;;5053626;28;20495;-69
2021/04/17 13:02:49;;;;;;;9.93;9.13;;;12.90;99.90;;;;;;5052264;28;20480;-68
2021/04/17 13:05:16;;;;;;;10.23;9.30;;;12.50;99.90;;;;;;5052243;28;20056;-68
2021/04/17 13:07:43;;;;;;;9.65;8.85;;;12.30;99.90;;;;;;5053088;28;20136;-69
2021/04/17 13:10:14;;;;;;;9.93;9.13;;;12.10;99.90;;;;;;5053350;28;20128;-69
2021/04/17 13:12:42;;;;;;;9.63;8.80;;;12.20;99.90;;;;;;5052023;28;20150;-69
2021/04/17 13:15:10;;;;;;;9.50;8.63;;;11.90;99.90;;;;;;5054162;28;20492;-69
2021/04/17 13:17:37;;;;;;;9.55;8.75;;;11.70;99.90;;;;;;5051631;28;20045;-69
2021/04/17 13:20:05;;;;;;;9.80;8.85;;;11.50;99.90;;;;;;5054366;28;20059;-69
2021/04/17 13:22:32;;;;;;;10.00;9.20;;;11.30;99.90;;;;;;5053855;28;20526;-69
2021/04/17 13:24:59;;;;;;;10.32;9.43;;;11.00;99.90;;;;;;5042979;28;20132;-70
2021/04/17 13:27:26;;;;;;;9.93;8.98;;;10.90;99.90;;;;;;5053377;28;20045;-69
2021/04/17 13:29:53;;;;;;;10.38;9.27;;;10.90;99.90;;;;;;5053435;28;20045;-69
2021/04/17 13:32:20;;;;;;;9.93;8.75;;;10.80;99.90;;;;;;5052836;28;20054;-69
2021/04/17 13:34:47;;;;;;;9.43;8.63;;;10.80;99.90;;;;;;5054485;28;20041;-69
2021/04/17 13:37:15;;;;;;;10.88;9.15;;;10.70;99.90;;;;;;5052428;28;20067;-69
2021/04/17 13:39:42;;;;;;;9.60;8.80;;;10.40;99.90;;;;;;5048648;28;20061;-69